createdAt,value
2019-05-05T00:01:31.658Z,1.61
2019-05-05T00:06:27.878Z,1.46
2019-05-05T00:11:41.055Z,0.94
2019-05-05T00:16:41.656Z,0.86
2019-05-05T00:21:37.683Z,0.72
2019-05-05T00:26:36.811Z,0.64
2019-05-05T00:31:34.743Z,0.64
2019-05-05T00:36:30.854Z,0.62
2019-05-05T00:41:26.819Z,1.35
2019-05-05T00:46:30.578Z,0.80
2019-05-05T00:51:26.611Z,0.59
2019-05-05T00:56:25.074Z,1.22
2019-05-05T01:01:44.720Z,0.87
2019-05-05T01:06:40.688Z,0.92
2019-05-05T01:11:36.713Z,0.79
2019-05-05T01:16:32.738Z,0.95
2019-05-05T01:21:28.761Z,0.94
2019-05-05T01:26:26.924Z,1.20
2019-05-05T01:31:25.221Z,0.98
2019-05-05T01:36:21.370Z,0.97
2019-05-05T01:41:19.410Z,0.94
2019-05-05T01:46:15.343Z,1.13
2019-05-05T01:51:11.271Z,1.76
2019-05-05T01:56:20.007Z,1.39
2019-05-05T02:01:15.935Z,1.21
2019-05-05T02:06:14.123Z,1.10
2019-05-05T02:11:09.893Z,1.06
2019-05-05T02:16:05.820Z,1.07
2019-05-05T02:21:05.152Z,0.84
2019-05-05T02:26:04.586Z,0.66
2019-05-05T02:31:16.628Z,0.56
2019-05-05T02:36:15.732Z,0.58
2019-05-05T02:41:11.276Z,0.50
2019-05-05T02:46:14.450Z,0.37
2019-05-05T02:51:14.803Z,0.94
2019-05-05T03:01:37.069Z,0.31
2019-05-05T03:06:34.322Z,0.33
2019-05-05T03:11:31.887Z,0.30
2019-05-05T03:16:31.649Z,0.23
2019-05-05T03:21:27.688Z,0.25
2019-05-05T03:26:25.685Z,0.26
2019-05-05T03:31:22.078Z,0.32
2019-05-05T03:36:18.104Z,0.16
2019-05-05T03:41:25.085Z,0.72
2019-05-05T03:46:21.110Z,0.62
2019-05-05T03:51:20.970Z,0.16
2019-05-05T03:56:24.159Z,0.05
2019-05-05T04:01:56.317Z,0.34
2019-05-05T04:06:57.419Z,0.06
2019-05-05T04:11:54.078Z,0.07
2019-05-05T04:16:55.016Z,0.01
2019-05-05T04:21:50.942Z,0.18
2019-05-05T04:26:47.552Z,0.25
2019-05-05T04:31:43.604Z,0.19
2019-05-05T04:36:39.653Z,0.29
2019-05-05T04:41:35.593Z,0.37
2019-05-05T04:46:33.715Z,0.49
2019-05-05T04:51:49.888Z,0.58
2019-05-05T04:56:44.805Z,0.86
2019-05-05T05:01:41.038Z,0.96
2019-05-05T05:06:38.876Z,1.19
2019-05-05T05:11:34.808Z,1.51
2019-05-05T05:16:30.843Z,1.59
2019-05-05T05:21:26.761Z,1.92
2019-05-05T05:26:29.168Z,2.62
2019-05-05T05:31:25.210Z,2.85
2019-05-05T05:36:21.133Z,3.93
2019-05-05T05:41:19.031Z,4.75
2019-05-05T05:46:28.826Z,4.87
2019-05-05T05:51:24.748Z,4.06
2019-05-05T05:56:24.951Z,3.90
2019-05-05T06:01:23.937Z,3.96
2019-05-05T06:06:19.916Z,4.48
2019-05-05T06:11:15.842Z,4.93
2019-05-05T06:16:11.770Z,5.27
2019-05-05T06:21:07.833Z,4.96
2019-05-05T06:26:06.842Z,4.61
2019-05-05T06:31:01.694Z,4.12
2019-05-05T06:35:57.620Z,4.09
2019-05-05T06:40:58.637Z,4.09
2019-05-05T06:45:59.233Z,4.33
2019-05-05T06:50:55.158Z,4.72
2019-05-05T06:55:52.436Z,5.08
2019-05-05T07:00:49.005Z,5.19
2019-05-05T07:05:44.939Z,5.33
2019-05-05T07:10:40.861Z,5.98
2019-05-05T07:15:36.812Z,6.42
2019-05-05T07:20:34.646Z,6.75
2019-05-05T07:25:42.172Z,7.22
2019-05-05T07:30:28.407Z,5.72
2019-05-05T07:35:26.287Z,6.45
2019-05-05T07:40:24.101Z,6.45
2019-05-05T07:45:25.154Z,6.75
2019-05-05T07:50:28.521Z,7.24
2019-05-05T07:55:15.888Z,7.52
2019-05-05T08:00:12.216Z,7.37
2019-05-05T08:05:20.189Z,7.36
2019-05-05T08:10:16.979Z,7.55
2019-05-05T08:15:15.620Z,7.41
2019-05-05T08:20:19.349Z,7.80
2019-05-05T08:25:16.836Z,7.98
2019-05-05T08:30:15.072Z,7.06
2019-05-05T08:35:11.245Z,6.45
2019-05-05T08:40:07.420Z,6.66
2019-05-05T08:45:04.668Z,7.13
2019-05-05T08:50:00.874Z,7.14
2019-05-05T08:54:56.895Z,7.71
2019-05-05T08:59:54.511Z,6.89
2019-05-05T09:04:50.644Z,6.93
2019-05-05T09:09:46.577Z,7.42
2019-05-05T09:14:44.756Z,7.28
2019-05-05T09:19:40.345Z,7.84
2019-05-05T09:24:41.192Z,8.13
2019-05-05T09:29:39.016Z,8.55
2019-05-05T09:34:34.937Z,8.33
2019-05-05T09:39:31.776Z,8.95
2019-05-05T09:44:27.805Z,9.56
2019-05-05T09:49:24.611Z,9.25
2019-05-05T09:54:20.866Z,9.86
2019-05-05T09:59:16.898Z,8.95
2019-05-05T10:04:13.957Z,9.10
2019-05-05T10:09:10.463Z,8.99
2019-05-05T10:14:06.705Z,8.62
2019-05-05T10:19:04.520Z,8.59
2019-05-05T10:24:04.474Z,8.81
2019-05-05T10:29:01.285Z,8.99
2019-05-05T10:33:59.345Z,8.60
2019-05-05T10:38:57.176Z,8.06
2019-05-05T10:43:54.212Z,7.63
2019-05-05T10:48:50.342Z,7.99
2019-05-05T10:53:46.277Z,9.22
2019-05-05T10:58:44.130Z,9.73
2019-05-05T11:03:40.420Z,10.70
2019-05-05T11:08:36.448Z,10.14
2019-05-05T11:13:34.344Z,9.90
2019-05-05T11:18:30.410Z,10.98
2019-05-05T11:23:26.437Z,11.35
2019-05-05T11:28:22.473Z,11.53
2019-05-05T11:33:34.282Z,9.34
2019-05-05T11:38:30.158Z,9.12
2019-05-05T11:43:26.099Z,8.84
2019-05-05T11:48:24.170Z,8.70
2019-05-05T11:53:22.292Z,8.97
2019-05-05T11:58:18.359Z,9.93
2019-05-05T12:03:23.493Z,10.94
2019-05-05T12:08:19.420Z,11.97
2019-05-05T12:13:15.388Z,12.69
2019-05-05T12:18:11.446Z,11.91
2019-05-05T12:23:08.225Z,11.56
2019-05-05T12:28:06.485Z,11.07
2019-05-05T12:33:04.769Z,9.75
2019-05-05T12:38:00.996Z,9.77
2019-05-05T12:42:56.926Z,9.88
2019-05-05T12:48:18.365Z,10.01
2019-05-05T12:53:15.112Z,9.82
2019-05-05T12:58:18.914Z,10.27
2019-05-05T13:03:23.983Z,10.33
2019-05-05T13:08:29.105Z,10.21
2019-05-05T13:13:27.335Z,10.48
2019-05-05T13:18:25.236Z,10.82
2019-05-05T13:23:23.835Z,11.19
2019-05-05T13:28:20.493Z,11.24
2019-05-05T13:33:16.567Z,12.34
2019-05-05T13:38:14.466Z,13.64
2019-05-05T13:43:10.464Z,12.21
2019-05-05T13:48:06.767Z,12.84
2019-05-05T13:53:05.663Z,13.14
2019-05-05T13:58:04.477Z,13.51
2019-05-05T14:03:00.512Z,12.92
2019-05-05T14:07:56.545Z,12.00
2019-05-05T14:12:55.178Z,10.84
2019-05-05T14:17:51.212Z,10.89
2019-05-05T14:22:47.349Z,10.39
2019-05-05T14:27:43.631Z,10.86
2019-05-05T14:32:41.532Z,10.55
2019-05-05T14:37:39.505Z,10.53
2019-05-05T14:42:35.463Z,10.86
2019-05-05T14:47:33.460Z,10.35
2019-05-05T14:52:29.318Z,10.24
2019-05-05T14:57:28.100Z,10.39
2019-05-05T15:02:24.595Z,10.54
2019-05-05T15:07:25.446Z,10.61
2019-05-05T15:12:23.792Z,10.65
2019-05-05T15:17:19.907Z,10.88
2019-05-05T15:22:15.835Z,10.54
2019-05-05T15:27:11.856Z,10.53
2019-05-05T15:32:07.786Z,10.99
2019-05-05T15:37:03.992Z,11.20
2019-05-05T15:42:00.062Z,11.78
2019-05-05T15:46:58.011Z,12.29
2019-05-05T15:51:54.060Z,11.52
2019-05-05T15:57:02.964Z,11.30
2019-05-05T16:01:48.481Z,10.64
2019-05-05T16:06:44.589Z,10.51
2019-05-05T16:11:40.598Z,10.26
2019-05-05T16:16:56.483Z,10.09
2019-05-05T16:21:54.489Z,10.06
2019-05-05T16:26:51.053Z,10.42
2019-05-05T16:31:46.956Z,10.72
2019-05-05T16:36:44.007Z,10.86
2019-05-05T16:41:40.328Z,10.62
2019-05-05T16:46:36.265Z,10.66
2019-05-05T16:51:35.001Z,10.79
2019-05-05T16:56:38.884Z,10.79
2019-05-05T17:01:35.741Z,10.91
2019-05-05T17:06:31.874Z,11.19
2019-05-05T17:11:27.903Z,10.94
2019-05-05T17:16:28.265Z,10.79
2019-05-05T17:26:43.771Z,10.49
2019-05-05T17:31:39.764Z,10.71
2019-05-05T17:36:35.761Z,11.24
2019-05-05T17:41:49.029Z,12.04
2019-05-05T17:47:04.481Z,11.65
2019-05-05T17:52:03.688Z,10.89
2019-05-05T17:57:00.422Z,11.18
2019-05-05T18:01:56.404Z,10.31
2019-05-05T18:06:54.247Z,10.20
2019-05-05T18:11:53.605Z,10.60
2019-05-05T18:16:49.603Z,11.14
2019-05-05T18:21:45.752Z,10.78
2019-05-05T18:26:43.573Z,10.41
2019-05-05T18:31:39.689Z,9.84
2019-05-05T18:36:35.608Z,9.37
2019-05-05T18:41:39.249Z,9.24
2019-05-05T18:46:35.168Z,9.20
2019-05-05T18:51:31.062Z,8.92
2019-05-05T18:56:27.898Z,8.61
2019-05-05T19:01:34.626Z,8.58
2019-05-05T19:06:49.524Z,8.43
2019-05-05T19:11:45.483Z,8.30
2019-05-05T19:16:41.407Z,8.13
2019-05-05T19:21:39.195Z,8.05
2019-05-05T19:26:37.140Z,8.03
2019-05-05T19:31:36.556Z,7.87
2019-05-05T19:36:34.301Z,7.74
2019-05-05T19:41:30.349Z,7.55
2019-05-05T19:46:28.174Z,7.50
2019-05-05T19:51:24.111Z,7.31
2019-05-05T19:56:23.521Z,6.78
2019-05-05T20:01:34.209Z,6.16
2019-05-05T20:06:19.330Z,6.07
2019-05-05T20:11:15.248Z,5.67
2019-05-05T20:16:18.926Z,5.39
2019-05-05T20:21:14.940Z,5.23
2019-05-05T20:26:28.864Z,5.37
2019-05-05T20:31:24.973Z,5.65
2019-05-05T20:36:23.777Z,5.19
2019-05-05T20:41:21.017Z,5.13
2019-05-05T20:46:17.337Z,4.82
2019-05-05T20:51:13.891Z,4.48
2019-05-05T20:56:15.299Z,4.75
2019-05-05T21:01:13.847Z,5.33
2019-05-05T21:06:09.320Z,4.93
2019-05-05T21:11:05.352Z,4.20
2019-05-05T21:16:01.275Z,3.84
2019-05-05T21:20:59.196Z,3.65
2019-05-05T21:25:57.557Z,3.74
2019-05-05T21:30:54.091Z,3.54
2019-05-05T21:35:50.115Z,3.46
2019-05-05T21:40:46.111Z,3.38
2019-05-05T21:45:44.328Z,3.30
2019-05-05T21:50:42.011Z,3.42
2019-05-05T21:55:43.921Z,3.37
2019-05-05T22:05:53.965Z,3.29
2019-05-05T22:10:51.576Z,3.19
2019-05-05T22:15:47.577Z,3.12
2019-05-05T22:20:48.594Z,3.01
2019-05-05T22:25:44.617Z,2.89
2019-05-05T22:30:40.543Z,2.85
2019-05-05T22:35:36.598Z,2.81
2019-05-05T22:40:34.639Z,2.74
2019-05-05T22:45:30.563Z,3.52
2019-05-05T22:50:26.589Z,3.23
2019-05-05T22:55:24.583Z,3.61
2019-05-05T23:00:28.336Z,2.76
2019-05-05T23:05:24.622Z,2.57
2019-05-05T23:10:20.662Z,2.42
2019-05-05T23:15:16.791Z,2.41
2019-05-05T23:20:41.125Z,2.54
2019-05-05T23:25:45.596Z,2.54
2019-05-05T23:30:41.948Z,2.17
2019-05-05T23:35:37.676Z,2.19
2019-05-05T23:40:33.958Z,2.10
2019-05-05T23:45:30.137Z,1.92
2019-05-05T23:50:26.158Z,1.85
2019-05-05T23:55:24.013Z,1.80
